sensor_id;sensor_type;location;lat;lon;timestamp;P1;durP1;ratioP1;P2;durP2;ratioP2
11220;SDS011;8517;53.546;10.104;2024-03-23T00:52:39;28.63;;;5.43;;
11220;SDS011;8517;53.546;10.104;2024-03-23T00:55:06;19.77;;;5.07;;
11220;SDS011;8517;53.546;10.104;2024-03-23T00:57:32;18.93;;;4.33;;
11220;SDS011;8517;53.546;10.104;2024-03-23T00:59:59;24.60;;;4.93;;
11220;SDS011;8517;53.546;10.104;2024-03-23T01:02:25;16.83;;;4.70;;
11220;SDS011;8517;53.546;10.104;2024-03-23T01:04:51;25.13;;;4.67;;
11220;SDS011;8517;53.546;10.104;2024-03-23T01:07:17;25.63;;;4.77;;
11220;SDS011;8517;53.546;10.104;2024-03-23T01:09:44;20.60;;;4.80;;
11220;SDS011;8517;53.546;10.104;2024-03-23T01:12:09;21.73;;;4.80;;
11220;SDS011;8517;53.546;10.104;2024-03-23T01:14:36;19.90;;;5.17;;
11220;SDS011;8517;53.546;10.104;2024-03-23T01:17:02;22.87;;;4.73;;
11220;SDS011;8517;53.546;10.104;2024-03-23T01:19:29;18.33;;;4.63;;
11220;SDS011;8517;53.546;10.104;2024-03-23T01:21:54;22.10;;;4.80;;
11220;SDS011;8517;53.546;10.104;2024-03-23T01:24:21;21.23;;;5.10;;
11220;SDS011;8517;53.546;10.104;2024-03-23T01:26:47;21.07;;;4.63;;
11220;SDS011;8517;53.546;10.104;2024-03-23T01:29:13;17.90;;;5.03;;
11220;SDS011;8517;53.546;10.104;2024-03-23T01:31:39;21.27;;;4.77;;
11220;SDS011;8517;53.546;10.104;2024-03-23T01:34:06;18.47;;;4.60;;
11220;SDS011;8517;53.546;10.104;2024-03-23T01:36:31;23.33;;;5.33;;
11220;SDS011;8517;53.546;10.104;2024-03-23T01:38:58;20.53;;;4.87;;
11220;SDS011;8517;53.546;10.104;2024-03-23T01:41:24;20.67;;;4.97;;
11220;SDS011;8517;53.546;10.104;2024-03-23T01:43:51;21.37;;;4.73;;
11220;SDS011;8517;53.546;10.104;2024-03-23T01:46:18;19.40;;;4.73;;
11220;SDS011;8517;53.546;10.104;2024-03-23T01:48:45;28.60;;;5.70;;
11220;SDS011;8517;53.546;10.104;2024-03-23T01:51:11;17.93;;;4.33;;
11220;SDS011;8517;53.546;10.104;2024-03-23T01:53:39;24.23;;;5.30;;
11220;SDS011;8517;53.546;10.104;2024-03-23T01:56:05;17.30;;;4.27;;
11220;SDS011;8517;53.546;10.104;2024-03-23T01:58:32;23.87;;;5.27;;
11220;SDS011;8517;53.546;10.104;2024-03-23T02:00:58;21.00;;;5.27;;
11220;SDS011;8517;53.546;10.104;2024-03-23T02:03:25;22.77;;;5.30;;
11220;SDS011;8517;53.546;10.104;2024-03-23T02:05:52;24.90;;;5.40;;
11220;SDS011;8517;53.546;10.104;2024-03-23T02:08:20;21.47;;;5.60;;
11220;SDS011;8517;53.546;10.104;2024-03-23T02:10:48;22.13;;;4.97;;
11220;SDS011;8517;53.546;10.104;2024-03-23T02:13:15;25.90;;;5.70;;
11220;SDS011;8517;53.546;10.104;2024-03-23T02:15:42;18.67;;;4.90;;
11220;SDS011;8517;53.546;10.104;2024-03-23T02:18:09;21.00;;;5.03;;
11220;SDS011;8517;53.546;10.104;2024-03-23T02:20:35;20.03;;;4.80;;
11220;SDS011;8517;53.546;10.104;2024-03-23T02:23:03;24.57;;;5.40;;
11220;SDS011;8517;53.546;10.104;2024-03-23T02:25:31;17.60;;;4.30;;
11220;SDS011;8517;53.546;10.104;2024-03-23T02:28:00;18.73;;;4.77;;
11220;SDS011;8517;53.546;10.104;2024-03-23T02:30:26;19.33;;;4.73;;
11220;SDS011;8517;53.546;10.104;2024-03-23T02:32:53;17.07;;;4.37;;
11220;SDS011;8517;53.546;10.104;2024-03-23T02:35:19;24.93;;;5.17;;
11220;SDS011;8517;53.546;10.104;2024-03-23T02:37:48;22.10;;;5.07;;
11220;SDS011;8517;53.546;10.104;2024-03-23T02:40:14;22.37;;;5.17;;
11220;SDS011;8517;53.546;10.104;2024-03-23T02:42:42;18.27;;;5.13;;
11220;SDS011;8517;53.546;10.104;2024-03-23T02:45:08;20.53;;;4.93;;
11220;SDS011;8517;53.546;10.104;2024-03-23T02:47:35;18.30;;;4.63;;
11220;SDS011;8517;53.546;10.104;2024-03-23T02:50:00;18.43;;;4.90;;
11220;SDS011;8517;53.546;10.104;2024-03-23T02:52:28;16.53;;;4.93;;
11220;SDS011;8517;53.546;10.104;2024-03-23T02:54:53;21.27;;;4.93;;
11220;SDS011;8517;53.546;10.104;2024-03-23T02:57:20;20.77;;;4.93;;
11220;SDS011;8517;53.546;10.104;2024-03-23T02:59:46;21.43;;;4.90;;
11220;SDS011;8517;53.546;10.104;2024-03-23T03:02:13;22.97;;;4.97;;
11220;SDS011;8517;53.546;10.104;2024-03-23T03:04:40;23.23;;;5.00;;
11220;SDS011;8517;53.546;10.104;2024-03-23T03:07:06;22.73;;;4.67;;
11220;SDS011;8517;53.546;10.104;2024-03-23T03:09:32;23.23;;;4.97;;
11220;SDS011;8517;53.546;10.104;2024-03-23T03:12:00;22.93;;;5.03;;
11220;SDS011;8517;53.546;10.104;2024-03-23T03:14:27;23.23;;;4.83;;
11220;SDS011;8517;53.546;10.104;2024-03-23T03:16:54;24.43;;;5.20;;
11220;SDS011;8517;53.546;10.104;2024-03-23T03:19:19;19.87;;;4.80;;
11220;SDS011;8517;53.546;10.104;2024-03-23T03:21:46;18.80;;;4.90;;
11220;SDS011;8517;53.546;10.104;2024-03-23T03:24:12;19.67;;;5.33;;
11220;SDS011;8517;53.546;10.104;2024-03-23T03:26:39;24.90;;;5.90;;
11220;SDS011;8517;53.546;10.104;2024-03-23T03:29:05;17.17;;;5.50;;
11220;SDS011;8517;53.546;10.104;2024-03-23T03:31:32;23.20;;;4.80;;
11220;SDS011;8517;53.546;10.104;2024-03-23T03:33:57;17.00;;;4.77;;
11220;SDS011;8517;53.546;10.104;2024-03-23T03:36:24;18.37;;;4.30;;
11220;SDS011;8517;53.546;10.104;2024-03-23T03:38:50;19.90;;;4.93;;
11220;SDS011;8517;53.546;10.104;2024-03-23T03:41:18;22.10;;;4.70;;
11220;SDS011;8517;53.546;10.104;2024-03-23T03:43:44;23.43;;;4.63;;
11220;SDS011;8517;53.546;10.104;2024-03-23T03:46:10;21.67;;;5.20;;
11220;SDS011;8517;53.546;10.104;2024-03-23T03:48:36;18.63;;;4.50;;
11220;SDS011;8517;53.546;10.104;2024-03-23T03:51:03;22.67;;;4.60;;
11220;SDS011;8517;53.546;10.104;2024-03-23T03:53:29;20.97;;;5.33;;
11220;SDS011;8517;53.546;10.104;2024-03-23T03:55:56;23.90;;;5.13;;
11220;SDS011;8517;53.546;10.104;2024-03-23T03:58:25;20.33;;;4.77;;
11220;SDS011;8517;53.546;10.104;2024-03-23T04:00:52;16.40;;;4.60;;
11220;SDS011;8517;53.546;10.104;2024-03-23T04:03:18;17.07;;;5.10;;
11220;SDS011;8517;53.546;10.104;2024-03-23T04:05:54;21.63;;;5.37;;
11220;SDS011;8517;53.546;10.104;2024-03-23T04:08:20;21.97;;;4.70;;
11220;SDS011;8517;53.546;10.104;2024-03-23T04:10:47;21.67;;;5.20;;
11220;SDS011;8517;53.546;10.104;2024-03-23T04:13:13;19.23;;;4.60;;
11220;SDS011;8517;53.546;10.104;2024-03-23T04:15:40;15.90;;;5.20;;
11220;SDS011;8517;53.546;10.104;2024-03-23T04:18:06;24.20;;;5.00;;
11220;SDS011;8517;53.546;10.104;2024-03-23T04:23:27;22.33;;;4.53;;
11220;SDS011;8517;53.546;10.104;2024-03-23T04:25:53;19.70;;;4.77;;
11220;SDS011;8517;53.546;10.104;2024-03-23T04:28:19;21.40;;;4.80;;
11220;SDS011;8517;53.546;10.104;2024-03-23T04:30:46;14.67;;;4.30;;
11220;SDS011;8517;53.546;10.104;2024-03-23T04:33:11;22.60;;;5.40;;
11220;SDS011;8517;53.546;10.104;2024-03-23T04:35:38;20.40;;;4.70;;
11220;SDS011;8517;53.546;10.104;2024-03-23T04:38:04;18.43;;;4.47;;
11220;SDS011;8517;53.546;10.104;2024-03-23T04:40:30;20.03;;;5.20;;
11220;SDS011;8517;53.546;10.104;2024-03-23T04:42:57;21.27;;;5.10;;
11220;SDS011;8517;53.546;10.104;2024-03-23T04:45:25;16.60;;;4.17;;
11220;SDS011;8517;53.546;10.104;2024-03-23T04:47:52;20.47;;;4.80;;
11220;SDS011;8517;53.546;10.104;2024-03-23T04:50:19;18.87;;;5.10;;
11220;SDS011;8517;53.546;10.104;2024-03-23T04:52:46;19.47;;;5.10;;
11220;SDS011;8517;53.546;10.104;2024-03-23T04:55:12;23.27;;;4.70;;
11220;SDS011;8517;53.546;10.104;2024-03-23T04:57:39;20.07;;;4.67;;
11220;SDS011;8517;53.546;10.104;2024-03-23T05:00:06;17.93;;;4.40;;
11220;SDS011;8517;53.546;10.104;2024-03-23T05:02:42;20.93;;;5.23;;
11220;SDS011;8517;53.546;10.104;2024-03-23T05:05:10;18.90;;;4.53;;
11220;SDS011;8517;53.546;10.104;2024-03-23T05:07:36;19.77;;;4.77;;
11220;SDS011;8517;53.546;10.104;2024-03-23T05:10:03;15.90;;;4.87;;
11220;SDS011;8517;53.546;10.104;2024-03-23T05:12:29;14.10;;;4.07;;
11220;SDS011;8517;53.546;10.104;2024-03-23T05:14:56;17.37;;;4.23;;
11220;SDS011;8517;53.546;10.104;2024-03-23T05:17:22;18.07;;;4.43;;
11220;SDS011;8517;53.546;10.104;2024-03-23T05:19:49;23.80;;;4.93;;
11220;SDS011;8517;53.546;10.104;2024-03-23T05:22:14;25.07;;;5.67;;
11220;SDS011;8517;53.546;10.104;2024-03-23T05:24:41;17.37;;;4.33;;
11220;SDS011;8517;53.546;10.104;2024-03-23T05:27:07;13.37;;;4.20;;
11220;SDS011;8517;53.546;10.104;2024-03-23T05:29:33;16.70;;;4.73;;
11220;SDS011;8517;53.546;10.104;2024-03-23T05:31:59;20.47;;;4.27;;
11220;SDS011;8517;53.546;10.104;2024-03-23T05:34:26;18.80;;;4.90;;
11220;SDS011;8517;53.546;10.104;2024-03-23T05:36:53;16.13;;;4.23;;
11220;SDS011;8517;53.546;10.104;2024-03-23T05:39:20;13.83;;;4.47;;
11220;SDS011;8517;53.546;10.104;2024-03-23T05:41:47;16.37;;;4.43;;
11220;SDS011;8517;53.546;10.104;2024-03-23T05:44:14;18.17;;;4.10;;
11220;SDS011;8517;53.546;10.104;2024-03-23T05:46:40;18.60;;;4.20;;
11220;SDS011;8517;53.546;10.104;2024-03-23T05:49:07;15.43;;;4.70;;
11220;SDS011;8517;53.546;10.104;2024-03-23T05:51:33;16.37;;;3.97;;
11220;SDS011;8517;53.546;10.104;2024-03-23T05:54:00;20.37;;;4.93;;
11220;SDS011;8517;53.546;10.104;2024-03-23T05:56:26;15.10;;;4.00;;
11220;SDS011;8517;53.546;10.104;2024-03-23T05:58:52;20.90;;;4.50;;
11220;SDS011;8517;53.546;10.104;2024-03-23T06:01:18;60.27;;;36.90;;
11220;SDS011;8517;53.546;10.104;2024-03-23T06:03:45;78.97;;;45.83;;
11220;SDS011;8517;53.546;10.104;2024-03-23T06:06:11;60.70;;;43.23;;
11220;SDS011;8517;53.546;10.104;2024-03-23T06:08:38;23.03;;;8.10;;
11220;SDS011;8517;53.546;10.104;2024-03-23T06:11:04;18.93;;;7.87;;
11220;SDS011;8517;53.546;10.104;2024-03-23T06:13:31;19.27;;;5.43;;
11220;SDS011;8517;53.546;10.104;2024-03-23T06:15:57;18.30;;;4.60;;
11220;SDS011;8517;53.546;10.104;2024-03-23T06:18:24;22.73;;;5.50;;
11220;SDS011;8517;53.546;10.104;2024-03-23T06:20:50;15.60;;;4.77;;
11220;SDS011;8517;53.546;10.104;2024-03-23T06:23:17;19.93;;;4.60;;
11220;SDS011;8517;53.546;10.104;2024-03-23T06:25:45;14.30;;;4.60;;
11220;SDS011;8517;53.546;10.104;2024-03-23T06:28:12;17.80;;;4.77;;
11220;SDS011;8517;53.546;10.104;2024-03-23T06:30:37;20.50;;;4.73;;
11220;SDS011;8517;53.546;10.104;2024-03-23T06:33:04;21.60;;;4.33;;
11220;SDS011;8517;53.546;10.104;2024-03-23T06:35:30;18.83;;;4.80;;
11220;SDS011;8517;53.546;10.104;2024-03-23T06:37:57;14.07;;;4.07;;
11220;SDS011;8517;53.546;10.104;2024-03-23T06:40:23;15.17;;;3.93;;
11220;SDS011;8517;53.546;10.104;2024-03-23T06:42:50;63.93;;;37.47;;
11220;SDS011;8517;53.546;10.104;2024-03-23T06:45:16;22.30;;;6.80;;
11220;SDS011;8517;53.546;10.104;2024-03-23T06:47:48;16.63;;;5.33;;
11220;SDS011;8517;53.546;10.104;2024-03-23T06:50:14;13.53;;;4.53;;
11220;SDS011;8517;53.546;10.104;2024-03-23T06:52:41;18.97;;;4.73;;
11220;SDS011;8517;53.546;10.104;2024-03-23T06:55:07;22.83;;;4.90;;
11220;SDS011;8517;53.546;10.104;2024-03-23T06:57:34;22.73;;;4.20;;
11220;SDS011;8517;53.546;10.104;2024-03-23T07:00:00;22.90;;;4.30;;
11220;SDS011;8517;53.546;10.104;2024-03-23T07:02:27;22.43;;;8.40;;
11220;SDS011;8517;53.546;10.104;2024-03-23T07:04:53;19.47;;;5.83;;
11220;SDS011;8517;53.546;10.104;2024-03-23T07:07:19;18.83;;;5.27;;
11220;SDS011;8517;53.546;10.104;2024-03-23T07:09:47;17.50;;;4.90;;
11220;SDS011;8517;53.546;10.104;2024-03-23T07:12:13;24.43;;;4.93;;
11220;SDS011;8517;53.546;10.104;2024-03-23T07:14:39;15.77;;;4.87;;
11220;SDS011;8517;53.546;10.104;2024-03-23T07:17:06;19.40;;;4.33;;
11220;SDS011;8517;53.546;10.104;2024-03-23T07:19:32;17.23;;;4.67;;
11220;SDS011;8517;53.546;10.104;2024-03-23T07:21:58;14.23;;;4.10;;
11220;SDS011;8517;53.546;10.104;2024-03-23T07:24:24;13.70;;;3.90;;
11220;SDS011;8517;53.546;10.104;2024-03-23T07:26:51;16.57;;;4.70;;
11220;SDS011;8517;53.546;10.104;2024-03-23T07:29:19;17.07;;;4.40;;
11220;SDS011;8517;53.546;10.104;2024-03-23T07:31:46;14.23;;;4.23;;
11220;SDS011;8517;53.546;10.104;2024-03-23T07:34:11;22.90;;;4.57;;
11220;SDS011;8517;53.546;10.104;2024-03-23T07:36:38;25.27;;;4.93;;
11220;SDS011;8517;53.546;10.104;2024-03-23T07:39:08;15.40;;;4.70;;
11220;SDS011;8517;53.546;10.104;2024-03-23T07:41:34;16.03;;;4.20;;
11220;SDS011;8517;53.546;10.104;2024-03-23T07:44:01;16.90;;;4.50;;
11220;SDS011;8517;53.546;10.104;2024-03-23T07:46:27;16.57;;;4.63;;
11220;SDS011;8517;53.546;10.104;2024-03-23T07:48:53;15.57;;;4.43;;
11220;SDS011;8517;53.546;10.104;2024-03-23T07:51:22;26.27;;;14.07;;
11220;SDS011;8517;53.546;10.104;2024-03-23T07:53:51;38.73;;;20.03;;
11220;SDS011;8517;53.546;10.104;2024-03-23T07:56:17;20.27;;;5.53;;
11220;SDS011;8517;53.546;10.104;2024-03-23T07:58:45;18.63;;;5.03;;
11220;SDS011;8517;53.546;10.104;2024-03-23T08:01:12;16.93;;;4.23;;
11220;SDS011;8517;53.546;10.104;2024-03-23T08:03:40;15.23;;;5.03;;
11220;SDS011;8517;53.546;10.104;2024-03-23T08:06:14;19.60;;;5.00;;
11220;SDS011;8517;53.546;10.104;2024-03-23T08:08:42;17.57;;;5.60;;
11220;SDS011;8517;53.546;10.104;2024-03-23T08:11:14;18.17;;;4.90;;
11220;SDS011;8517;53.546;10.104;2024-03-23T08:13:40;14.53;;;4.30;;
11220;SDS011;8517;53.546;10.104;2024-03-23T08:16:08;19.97;;;5.57;;
11220;SDS011;8517;53.546;10.104;2024-03-23T08:18:34;14.70;;;4.50;;
11220;SDS011;8517;53.546;10.104;2024-03-23T08:21:04;15.50;;;3.90;;
11220;SDS011;8517;53.546;10.104;2024-03-23T08:23:32;14.57;;;4.20;;
11220;SDS011;8517;53.546;10.104;2024-03-23T08:26:01;14.17;;;4.27;;
11220;SDS011;8517;53.546;10.104;2024-03-23T08:28:29;15.67;;;4.23;;
11220;SDS011;8517;53.546;10.104;2024-03-23T08:30:56;14.50;;;4.13;;
11220;SDS011;8517;53.546;10.104;2024-03-23T08:33:22;67.57;;;44.07;;
11220;SDS011;8517;53.546;10.104;2024-03-23T08:35:56;17.13;;;7.47;;
11220;SDS011;8517;53.546;10.104;2024-03-23T08:38:23;17.20;;;5.30;;
11220;SDS011;8517;53.546;10.104;2024-03-23T08:43:22;12.03;;;4.43;;
11220;SDS011;8517;53.546;10.104;2024-03-23T08:45:49;14.87;;;4.10;;
11220;SDS011;8517;53.546;10.104;2024-03-23T08:48:15;10.70;;;4.00;;
11220;SDS011;8517;53.546;10.104;2024-03-23T08:50:42;14.83;;;3.73;;
11220;SDS011;8517;53.546;10.104;2024-03-23T08:53:08;15.50;;;4.00;;
11220;SDS011;8517;53.546;10.104;2024-03-23T08:55:35;12.90;;;3.50;;
11220;SDS011;8517;53.546;10.104;2024-03-23T08:58:01;12.90;;;3.40;;
11220;SDS011;8517;53.546;10.104;2024-03-23T09:00:29;15.87;;;4.53;;
11220;SDS011;8517;53.546;10.104;2024-03-23T09:02:55;18.93;;;3.70;;
11220;SDS011;8517;53.546;10.104;2024-03-23T09:05:23;15.37;;;4.17;;
11220;SDS011;8517;53.546;10.104;2024-03-23T09:07:49;14.60;;;3.60;;
11220;SDS011;8517;53.546;10.104;2024-03-23T09:10:17;16.63;;;3.90;;
11220;SDS011;8517;53.546;10.104;2024-03-23T09:12:43;19.70;;;4.10;;
11220;SDS011;8517;53.546;10.104;2024-03-23T09:15:10;13.43;;;4.17;;
11220;SDS011;8517;53.546;10.104;2024-03-23T09:17:36;26.70;;;13.73;;
11220;SDS011;8517;53.546;10.104;2024-03-23T09:20:03;27.57;;;15.97;;
11220;SDS011;8517;53.546;10.104;2024-03-23T09:22:29;13.30;;;5.00;;
11220;SDS011;8517;53.546;10.104;2024-03-23T09:24:56;13.87;;;3.90;;
11220;SDS011;8517;53.546;10.104;2024-03-23T09:27:22;15.83;;;3.87;;
11220;SDS011;8517;53.546;10.104;2024-03-23T09:29:48;9.43;;;3.73;;
11220;SDS011;8517;53.546;10.104;2024-03-23T09:32:14;12.73;;;3.40;;
11220;SDS011;8517;53.546;10.104;2024-03-23T09:34:41;11.90;;;2.87;;
11220;SDS011;8517;53.546;10.104;2024-03-23T09:37:06;13.60;;;3.30;;
11220;SDS011;8517;53.546;10.104;2024-03-23T09:39:33;12.20;;;3.10;;
11220;SDS011;8517;53.546;10.104;2024-03-23T09:41:59;11.07;;;3.20;;
11220;SDS011;8517;53.546;10.104;2024-03-23T09:44:26;11.07;;;3.27;;
11220;SDS011;8517;53.546;10.104;2024-03-23T09:46:54;11.40;;;3.30;;
11220;SDS011;8517;53.546;10.104;2024-03-23T09:49:21;19.70;;;4.07;;
11220;SDS011;8517;53.546;10.104;2024-03-23T09:51:47;37.90;;;6.00;;
11220;SDS011;8517;53.546;10.104;2024-03-23T09:54:14;43.13;;;6.43;;
11220;SDS011;8517;53.546;10.104;2024-03-23T09:56:39;16.13;;;4.40;;
11220;SDS011;8517;53.546;10.104;2024-03-23T09:59:06;102.87;;;22.07;;
11220;SDS011;8517;53.546;10.104;2024-03-23T10:01:32;47.13;;;9.70;;
11220;SDS011;8517;53.546;10.104;2024-03-23T10:03:59;13.33;;;4.10;;
11220;SDS011;8517;53.546;10.104;2024-03-23T10:06:25;9.90;;;3.13;;
11220;SDS011;8517;53.546;10.104;2024-03-23T10:08:52;11.50;;;3.17;;
11220;SDS011;8517;53.546;10.104;2024-03-23T10:11:20;9.47;;;3.00;;
11220;SDS011;8517;53.546;10.104;2024-03-23T10:13:47;9.43;;;2.77;;
11220;SDS011;8517;53.546;10.104;2024-03-23T10:16:20;10.37;;;2.80;;
11220;SDS011;8517;53.546;10.104;2024-03-23T10:18:49;7.70;;;2.70;;
11220;SDS011;8517;53.546;10.104;2024-03-23T10:21:15;9.23;;;2.67;;
11220;SDS011;8517;53.546;10.104;2024-03-23T10:23:43;9.50;;;2.67;;
11220;SDS011;8517;53.546;10.104;2024-03-23T10:29:08;6.07;;;2.27;;
11220;SDS011;8517;53.546;10.104;2024-03-23T10:31:36;8.70;;;2.47;;
11220;SDS011;8517;53.546;10.104;2024-03-23T10:34:06;8.20;;;2.17;;
11220;SDS011;8517;53.546;10.104;2024-03-23T10:36:32;9.60;;;2.60;;
11220;SDS011;8517;53.546;10.104;2024-03-23T10:39:06;9.13;;;2.60;;
11220;SDS011;8517;53.546;10.104;2024-03-23T10:41:33;8.30;;;2.43;;
11220;SDS011;8517;53.546;10.104;2024-03-23T10:44:02;10.37;;;2.93;;
11220;SDS011;8517;53.546;10.104;2024-03-23T10:46:30;8.03;;;2.37;;
11220;SDS011;8517;53.546;10.104;2024-03-23T10:48:57;8.77;;;2.40;;
11220;SDS011;8517;53.546;10.104;2024-03-23T10:51:23;8.37;;;4.30;;
11220;SDS011;8517;53.546;10.104;2024-03-23T10:53:49;12.90;;;3.30;;
11220;SDS011;8517;53.546;10.104;2024-03-23T10:56:18;9.07;;;2.80;;
11220;SDS011;8517;53.546;10.104;2024-03-23T10:58:46;7.03;;;2.17;;
11220;SDS011;8517;53.546;10.104;2024-03-23T11:01:14;8.23;;;2.33;;
11220;SDS011;8517;53.546;10.104;2024-03-23T11:03:45;7.03;;;2.47;;
11220;SDS011;8517;53.546;10.104;2024-03-23T11:06:12;6.17;;;2.20;;
11220;SDS011;8517;53.546;10.104;2024-03-23T11:09:02;8.40;;;2.27;;
11220;SDS011;8517;53.546;10.104;2024-03-23T11:11:28;7.07;;;2.40;;
11220;SDS011;8517;53.546;10.104;2024-03-23T11:13:56;6.03;;;2.00;;
11220;SDS011;8517;53.546;10.104;2024-03-23T11:16:23;12.10;;;2.90;;
11220;SDS011;8517;53.546;10.104;2024-03-23T11:18:52;8.23;;;2.60;;
11220;SDS011;8517;53.546;10.104;2024-03-23T11:21:54;7.43;;;2.57;;
11220;SDS011;8517;53.546;10.104;2024-03-23T11:24:22;6.50;;;2.70;;
11220;SDS011;8517;53.546;10.104;2024-03-23T11:26:48;10.27;;;2.63;;
11220;SDS011;8517;53.546;10.104;2024-03-23T11:29:16;7.33;;;3.03;;
11220;SDS011;8517;53.546;10.104;2024-03-23T11:31:49;7.97;;;2.53;;
11220;SDS011;8517;53.546;10.104;2024-03-23T11:34:18;8.43;;;2.43;;
11220;SDS011;8517;53.546;10.104;2024-03-23T11:36:44;12.77;;;2.53;;
11220;SDS011;8517;53.546;10.104;2024-03-23T11:39:15;8.20;;;2.30;;
11220;SDS011;8517;53.546;10.104;2024-03-23T11:41:49;9.53;;;2.30;;
11220;SDS011;8517;53.546;10.104;2024-03-23T11:44:18;7.43;;;2.03;;
11220;SDS011;8517;53.546;10.104;2024-03-23T11:46:45;6.47;;;1.97;;
11220;SDS011;8517;53.546;10.104;2024-03-23T11:49:28;6.53;;;2.10;;
11220;SDS011;8517;53.546;10.104;2024-03-23T11:51:55;6.67;;;2.03;;
11220;SDS011;8517;53.546;10.104;2024-03-23T11:54:25;7.50;;;2.43;;
11220;SDS011;8517;53.546;10.104;2024-03-23T11:57:05;8.47;;;2.20;;
11220;SDS011;8517;53.546;10.104;2024-03-23T11:59:36;6.47;;;2.10;;
11220;SDS011;8517;53.546;10.104;2024-03-23T12:02:09;5.97;;;1.73;;
11220;SDS011;8517;53.546;10.104;2024-03-23T12:04:40;6.60;;;1.60;;
11220;SDS011;8517;53.546;10.104;2024-03-23T12:07:09;6.13;;;1.80;;
11220;SDS011;8517;53.546;10.104;2024-03-23T12:09:44;7.27;;;2.00;;
11220;SDS011;8517;53.546;10.104;2024-03-23T12:12:13;5.10;;;2.00;;
11220;SDS011;8517;53.546;10.104;2024-03-23T12:14:44;3.87;;;1.60;;
11220;SDS011;8517;53.546;10.104;2024-03-23T12:17:14;4.87;;;1.43;;
11220;SDS011;8517;53.546;10.104;2024-03-23T12:19:41;4.03;;;1.50;;
11220;SDS011;8517;53.546;10.104;2024-03-23T12:22:10;2.80;;;0.87;;
11220;SDS011;8517;53.546;10.104;2024-03-23T12:24:36;2.23;;;1.00;;
11220;SDS011;8517;53.546;10.104;2024-03-23T12:27:04;4.73;;;1.10;;
11220;SDS011;8517;53.546;10.104;2024-03-23T12:29:31;2.70;;;0.80;;
11220;SDS011;8517;53.546;10.104;2024-03-23T12:32:01;4.53;;;1.40;;
11220;SDS011;8517;53.546;10.104;2024-03-23T12:34:28;1.83;;;0.97;;
11220;SDS011;8517;53.546;10.104;2024-03-23T12:36:55;3.80;;;0.80;;
11220;SDS011;8517;53.546;10.104;2024-03-23T12:39:22;17.07;;;10.00;;
11220;SDS011;8517;53.546;10.104;2024-03-23T12:41:48;4.97;;;2.20;;
11220;SDS011;8517;53.546;10.104;2024-03-23T12:44:17;2.73;;;1.50;;
11220;SDS011;8517;53.546;10.104;2024-03-23T12:46:42;4.63;;;1.30;;
11220;SDS011;8517;53.546;10.104;2024-03-23T12:49:09;4.40;;;1.10;;
11220;SDS011;8517;53.546;10.104;2024-03-23T12:51:35;1.17;;;0.80;;
11220;SDS011;8517;53.546;10.104;2024-03-23T12:54:02;1.33;;;0.67;;
11220;SDS011;8517;53.546;10.104;2024-03-23T12:56:28;0.80;;;0.50;;
11220;SDS011;8517;53.546;10.104;2024-03-23T12:58:55;1.00;;;0.60;;
11220;SDS011;8517;53.546;10.104;2024-03-23T13:01:22;0.87;;;0.60;;
11220;SDS011;8517;53.546;10.104;2024-03-23T13:03:49;1.83;;;0.70;;
11220;SDS011;8517;53.546;10.104;2024-03-23T13:06:16;2.50;;;0.90;;
11220;SDS011;8517;53.546;10.104;2024-03-23T13:08:47;4.93;;;0.90;;
11220;SDS011;8517;53.546;10.104;2024-03-23T13:11:16;1.70;;;0.90;;
11220;SDS011;8517;53.546;10.104;2024-03-23T13:13:45;3.60;;;0.90;;
11220;SDS011;8517;53.546;10.104;2024-03-23T13:16:11;2.90;;;1.00;;
11220;SDS011;8517;53.546;10.104;2024-03-23T13:18:38;2.67;;;1.10;;
11220;SDS011;8517;53.546;10.104;2024-03-23T13:21:07;2.70;;;1.23;;
11220;SDS011;8517;53.546;10.104;2024-03-23T13:23:33;3.80;;;1.33;;
11220;SDS011;8517;53.546;10.104;2024-03-23T13:26:01;4.73;;;1.23;;
11220;SDS011;8517;53.546;10.104;2024-03-23T13:28:28;24.10;;;14.27;;
11220;SDS011;8517;53.546;10.104;2024-03-23T13:30:54;4.07;;;1.93;;
11220;SDS011;8517;53.546;10.104;2024-03-23T13:33:22;4.17;;;1.57;;
11220;SDS011;8517;53.546;10.104;2024-03-23T13:35:51;2.47;;;1.23;;
11220;SDS011;8517;53.546;10.104;2024-03-23T13:38:18;2.77;;;1.37;;
11220;SDS011;8517;53.546;10.104;2024-03-23T13:40:57;6.60;;;1.40;;
11220;SDS011;8517;53.546;10.104;2024-03-23T13:43:26;2.60;;;1.30;;
11220;SDS011;8517;53.546;10.104;2024-03-23T13:45:53;4.40;;;1.30;;
11220;SDS011;8517;53.546;10.104;2024-03-23T13:48:22;5.37;;;1.43;;
11220;SDS011;8517;53.546;10.104;2024-03-23T13:50:58;1.50;;;1.17;;
11220;SDS011;8517;53.546;10.104;2024-03-23T13:53:29;3.87;;;1.23;;
11220;SDS011;8517;53.546;10.104;2024-03-23T13:55:55;3.47;;;1.30;;
11220;SDS011;8517;53.546;10.104;2024-03-23T13:58:22;4.27;;;2.03;;
11220;SDS011;8517;53.546;10.104;2024-03-23T14:00:50;5.57;;;2.70;;
11220;SDS011;8517;53.546;10.104;2024-03-23T14:03:17;5.93;;;1.70;;
11220;SDS011;8517;53.546;10.104;2024-03-23T14:05:43;4.00;;;1.13;;
11220;SDS011;8517;53.546;10.104;2024-03-23T14:08:12;1.53;;;1.00;;
11220;SDS011;8517;53.546;10.104;2024-03-23T14:10:41;2.20;;;0.93;;
11220;SDS011;8517;53.546;10.104;2024-03-23T14:13:08;2.87;;;0.93;;
11220;SDS011;8517;53.546;10.104;2024-03-23T14:15:34;2.80;;;1.17;;
11220;SDS011;8517;53.546;10.104;2024-03-23T14:18:03;2.33;;;0.90;;
11220;SDS011;8517;53.546;10.104;2024-03-23T14:20:28;2.40;;;1.10;;
11220;SDS011;8517;53.546;10.104;2024-03-23T14:22:55;1.53;;;1.07;;
11220;SDS011;8517;53.546;10.104;2024-03-23T14:25:26;2.93;;;1.13;;
11220;SDS011;8517;53.546;10.104;2024-03-23T14:27:57;2.63;;;1.03;;
11220;SDS011;8517;53.546;10.104;2024-03-23T14:30:26;5.27;;;1.20;;
11220;SDS011;8517;53.546;10.104;2024-03-23T14:32:52;3.40;;;1.03;;
11220;SDS011;8517;53.546;10.104;2024-03-23T14:35:18;3.30;;;1.10;;
11220;SDS011;8517;53.546;10.104;2024-03-23T14:37:45;3.00;;;1.40;;
11220;SDS011;8517;53.546;10.104;2024-03-23T14:40:12;3.43;;;1.27;;
11220;SDS011;8517;53.546;10.104;2024-03-23T14:42:39;5.13;;;1.40;;
11220;SDS011;8517;53.546;10.104;2024-03-23T14:45:05;6.23;;;1.57;;
11220;SDS011;8517;53.546;10.104;2024-03-23T14:47:32;3.83;;;1.37;;
11220;SDS011;8517;53.546;10.104;2024-03-23T14:49:58;4.53;;;1.37;;
11220;SDS011;8517;53.546;10.104;2024-03-23T14:52:26;4.77;;;1.80;;
11220;SDS011;8517;53.546;10.104;2024-03-23T14:54:51;4.30;;;1.93;;
11220;SDS011;8517;53.546;10.104;2024-03-23T14:57:18;2.87;;;1.40;;
11220;SDS011;8517;53.546;10.104;2024-03-23T14:59:45;4.40;;;1.40;;
11220;SDS011;8517;53.546;10.104;2024-03-23T15:02:11;5.07;;;1.07;;
11220;SDS011;8517;53.546;10.104;2024-03-23T15:04:38;4.17;;;1.70;;
11220;SDS011;8517;53.546;10.104;2024-03-23T15:07:07;6.23;;;1.80;;
11220;SDS011;8517;53.546;10.104;2024-03-23T15:09:32;4.90;;;1.67;;
11220;SDS011;8517;53.546;10.104;2024-03-23T15:11:59;2.77;;;1.17;;
11220;SDS011;8517;53.546;10.104;2024-03-23T15:14:25;2.17;;;1.23;;
11220;SDS011;8517;53.546;10.104;2024-03-23T15:16:52;2.20;;;1.17;;
11220;SDS011;8517;53.546;10.104;2024-03-23T15:19:18;36.83;;;22.60;;
11220;SDS011;8517;53.546;10.104;2024-03-23T15:21:45;5.43;;;2.13;;
11220;SDS011;8517;53.546;10.104;2024-03-23T15:24:11;3.87;;;1.80;;
11220;SDS011;8517;53.546;10.104;2024-03-23T15:26:37;3.77;;;1.10;;
11220;SDS011;8517;53.546;10.104;2024-03-23T15:29:10;2.53;;;0.93;;
11220;SDS011;8517;53.546;10.104;2024-03-23T15:31:41;1.50;;;1.00;;
11220;SDS011;8517;53.546;10.104;2024-03-23T15:34:07;3.53;;;0.80;;
11220;SDS011;8517;53.546;10.104;2024-03-23T15:36:35;1.07;;;0.70;;
11220;SDS011;8517;53.546;10.104;2024-03-23T15:39:03;3.73;;;1.00;;